Time;durP1;ratioP1;P1;durP2;ratioP2;P2;SDS_P1;SDS_P2;PMS_P1;PMS_P2;Temp;Humidity;BMP_temperature;BMP_pressure;BME280_temperature;BME280_humidity;BME280_pressure;Samples;Min_cycle;Max_cycle;Signal;HPM_P1;HPM_P2
2022/04/01 00:01:25;;;;;;;4.55;1.48;;;23.00;37.90;;;;;;5023901;28;20036;-50
2022/04/01 00:03:51;;;;;;;2.88;1.50;;;23.00;37.90;;;;;;5024275;28;20063;-51
2022/04/01 00:06:17;;;;;;;3.95;2.00;;;23.00;37.90;;;;;;5024635;28;20057;-50
2022/04/01 00:08:43;;;;;;;3.15;1.70;;;23.00;37.80;;;;;;5024178;28;20029;-50
2022/04/01 00:11:09;;;;;;;3.38;1.63;;;23.00;37.80;;;;;;5023297;28;20064;-49
2022/04/01 00:13:34;;;;;;;3.00;1.70;;;23.00;37.70;;;;;;5006310;28;20083;-50
2022/04/01 00:16:00;;;;;;;2.75;1.38;;;22.90;37.70;;;;;;5019738;28;20689;-49
2022/04/01 00:18:26;;;;;;;3.13;1.65;;;22.90;37.70;;;;;;5026941;28;20025;-49
2022/04/01 00:20:52;;;;;;;3.25;1.75;;;22.90;37.70;;;;;;5028273;28;20060;-51
2022/04/01 00:23:18;;;;;;;2.60;1.33;;;22.90;37.60;;;;;;5027499;28;20115;-50
2022/04/01 00:25:43;;;;;;;2.80;1.40;;;22.90;37.60;;;;;;5010531;28;20025;-50
2022/04/01 00:28:10;;;;;;;3.72;1.70;;;22.90;37.60;;;;;;5010107;28;20108;-49
2022/04/01 00:30:38;;;;;;;3.15;1.60;;;22.90;37.60;;;;;;5028011;28;20091;-50
2022/04/01 00:33:08;;;;;;;2.78;1.60;;;22.90;37.50;;;;;;5027401;28;20033;-50
2022/04/01 00:35:35;;;;;;;3.65;2.03;;;22.90;37.50;;;;;;5009415;28;20425;-50
2022/04/01 00:38:01;;;;;;;2.55;1.45;;;22.90;37.50;;;;;;5026851;28;20562;-51
2022/04/01 00:40:27;;;;;;;4.43;1.75;;;22.90;37.50;;;;;;5008998;28;20033;-49
2022/04/01 00:42:53;;;;;;;3.03;1.50;;;22.90;37.50;;;;;;5027893;28;20059;-49
2022/04/01 00:45:19;;;;;;;3.60;1.60;;;22.90;37.50;;;;;;5028186;28;20021;-50
2022/04/01 00:47:45;;;;;;;2.85;1.70;;;22.80;37.40;;;;;;5027720;28;20033;-51
2022/04/01 00:50:10;;;;;;;2.80;1.45;;;22.80;37.30;;;;;;5027735;28;20500;-50
2022/04/01 00:52:37;;;;;;;3.10;1.63;;;22.80;37.30;;;;;;5027689;28;20072;-50
2022/04/01 00:55:08;;;;;;;2.55;1.55;;;22.80;37.40;;;;;;5009414;28;20105;-49
2022/04/01 00:57:36;;;;;;;3.50;1.90;;;22.80;37.30;;;;;;5010185;28;20438;-50
2022/04/01 01:00:04;;;;;;;2.97;1.60;;;22.80;37.20;;;;;;5027792;28;20536;-49
2022/04/01 01:02:29;;;;;;;2.80;1.63;;;22.80;37.20;;;;;;5027450;28;20034;-50
2022/04/01 01:04:56;;;;;;;3.00;1.65;;;22.80;37.20;;;;;;5027793;28;20083;-50
2022/04/01 01:07:22;;;;;;;3.22;2.00;;;22.80;37.20;;;;;;5027142;28;20030;-49
2022/04/01 01:09:49;;;;;;;2.78;1.50;;;22.80;37.20;;;;;;5026924;28;20033;-50
2022/04/01 01:12:16;;;;;;;3.75;2.05;;;22.80;37.10;;;;;;5009673;28;20024;-50
2022/04/01 01:14:44;;;;;;;2.90;1.50;;;22.80;37.10;;;;;;5027807;28;20036;-51
2022/04/01 01:17:12;;;;;;;3.05;1.58;;;22.80;37.10;;;;;;5027516;28;20658;-49
2022/04/01 01:19:39;;;;;;;3.00;1.60;;;22.80;37.00;;;;;;5027105;28;20378;-50
2022/04/01 01:22:06;;;;;;;2.85;1.67;;;22.80;37.00;;;;;;5027670;28;20025;-49
2022/04/01 01:24:32;;;;;;;2.65;1.50;;;22.80;37.00;;;;;;5027335;28;20030;-50
2022/04/01 01:26:59;;;;;;;3.13;1.65;;;22.80;36.90;;;;;;5027457;28;20030;-50
2022/04/01 01:29:28;;;;;;;2.47;1.30;;;22.80;36.80;;;;;;5026066;28;20087;-49
2022/04/01 01:31:56;;;;;;;3.30;1.70;;;22.80;36.80;;;;;;5008997;28;20010;-50
2022/04/01 01:34:23;;;;;;;2.53;1.50;;;22.70;36.90;;;;;;5026810;28;20493;-50
2022/04/01 01:36:51;;;;;;;2.85;1.50;;;22.80;36.80;;;;;;5026895;28;20708;-50
2022/04/01 01:39:17;;;;;;;2.38;1.33;;;22.80;36.80;;;;;;5026687;28;20079;-50
2022/04/01 01:41:45;;;;;;;2.25;1.35;;;22.80;36.90;;;;;;5027151;28;20745;-49
2022/04/01 01:44:11;;;;;;;3.10;1.73;;;22.80;36.80;;;;;;5008905;28;20033;-49
2022/04/01 01:46:37;;;;;;;2.63;1.45;;;22.80;36.70;;;;;;5027118;28;20104;-51
2022/04/01 01:49:03;;;;;;;3.28;1.73;;;22.80;36.80;;;;;;5025971;28;20029;-51
2022/04/01 01:56:59;;;;;;;2.17;1.20;;;22.70;36.70;;;;;;5025906;28;20508;-49
2022/04/01 01:59:26;;;;;;;2.17;1.30;;;22.70;36.70;;;;;;5026006;28;20482;-49
2022/04/01 02:01:52;;;;;;;3.22;1.60;;;22.70;36.60;;;;;;5025497;28;20520;-49
2022/04/01 02:04:22;;;;;;;2.47;1.30;;;22.70;36.80;;;;;;5026124;28;20128;-50
2022/04/01 02:06:49;;;;;;;3.00;1.35;;;22.70;36.70;;;;;;5008492;28;20026;-50
2022/04/01 02:09:16;;;;;;;2.78;1.40;;;22.70;36.60;;;;;;5026049;28;20021;-49
2022/04/01 02:11:41;;;;;;;2.78;1.55;;;22.70;36.50;;;;;;5026227;28;20104;-49
2022/04/01 02:14:07;;;;;;;2.38;1.35;;;22.70;36.50;;;;;;5025752;28;20519;-50
2022/04/01 02:16:33;;;;;;;4.18;1.48;;;22.70;36.50;;;;;;5026290;28;20108;-49
2022/04/01 02:18:59;;;;;;;2.00;1.23;;;22.70;36.40;;;;;;5025579;28;20116;-49
2022/04/01 02:21:27;;;;;;;3.30;1.85;;;22.70;36.40;;;;;;5011540;28;20104;-49
2022/04/01 02:23:52;;;;;;;2.40;1.38;;;22.70;36.40;;;;;;5026120;28;20026;-49
2022/04/01 02:26:18;;;;;;;2.53;1.50;;;22.70;36.40;;;;;;5026373;28;20034;-50
2022/04/01 02:28:44;;;;;;;3.00;1.42;;;22.70;36.40;;;;;;5025785;28;20038;-51
2022/04/01 02:31:11;;;;;;;2.63;1.50;;;22.70;36.40;;;;;;5025654;28;20030;-50
2022/04/01 02:33:37;;;;;;;3.10;1.75;;;22.70;36.30;;;;;;5025998;28;20037;-50
2022/04/01 02:36:10;;;;;;;2.58;1.23;;;22.60;36.30;;;;;;5026402;28;20087;-50
2022/04/01 02:38:39;;;;;;;3.05;1.83;;;22.70;36.30;;;;;;5008282;28;20056;-50
2022/04/01 02:41:06;;;;;;;2.90;1.60;;;22.60;36.20;;;;;;5008075;28;20030;-49
2022/04/01 02:43:33;;;;;;;2.38;1.30;;;22.60;36.20;;;;;;5008245;28;20061;-50
2022/04/01 02:45:59;;;;;;;3.33;1.67;;;22.60;36.20;;;;;;5025941;28;20025;-50
2022/04/01 02:48:25;;;;;;;3.38;1.80;;;22.60;36.10;;;;;;5025538;28;20037;-50
2022/04/01 02:50:51;;;;;;;2.75;1.65;;;22.60;36.10;;;;;;5025769;28;20563;-50
2022/04/01 02:53:17;;;;;;;2.38;1.40;;;22.60;36.10;;;;;;5025476;28;20059;-49
2022/04/01 02:55:44;;;;;;;3.03;1.58;;;22.60;36.00;;;;;;5025943;28;20025;-50
2022/04/01 02:58:10;;;;;;;2.78;1.45;;;22.60;36.60;;;;;;5024907;28;20137;-49
2022/04/01 03:00:37;;;;;;;2.40;1.50;;;22.60;35.90;;;;;;5025468;28;20029;-49
2022/04/01 03:03:08;;;;;;;3.20;1.80;;;22.60;35.90;;;;;;5025447;28;20049;-59
2022/04/01 03:05:39;;;;;;;3.03;1.73;;;22.60;35.90;;;;;;5025329;28;20045;-50
2022/04/01 03:08:05;;;;;;;2.72;1.42;;;22.60;35.80;;;;;;5024763;28;20063;-50
2022/04/01 03:10:36;;;;;;;3.42;2.10;;;22.60;35.80;;;;;;5024634;28;20017;-51
2022/04/01 03:13:02;;;;;;;3.53;1.83;;;22.60;35.80;;;;;;5025318;28;20713;-50
2022/04/01 03:15:29;;;;;;;2.70;1.60;;;22.60;35.80;;;;;;5025339;28;20025;-49
2022/04/01 03:17:55;;;;;;;2.35;1.30;;;22.60;35.80;;;;;;5024889;28;20120;-50
2022/04/01 03:20:22;;;;;;;2.88;1.70;;;22.60;35.80;;;;;;5024951;28;20529;-50
2022/04/01 03:22:49;;;;;;;2.85;1.70;;;22.50;35.80;;;;;;5025242;28;20548;-49
2022/04/01 03:25:18;;;;;;;2.83;1.60;;;22.50;35.80;;;;;;5007884;28;20887;-51
2022/04/01 03:27:48;;;;;;;3.00;1.80;;;22.60;35.80;;;;;;5025093;28;20091;-51
2022/04/01 03:30:16;;;;;;;2.60;1.48;;;22.60;35.90;;;;;;5024837;28;20878;-50
2022/04/01 03:32:43;;;;;;;2.47;1.40;;;22.50;35.90;;;;;;5025040;28;20107;-50
2022/04/01 03:35:15;;;;;;;2.65;1.58;;;22.50;35.90;;;;;;5025342;28;20025;-49
2022/04/01 03:37:45;;;;;;;2.65;1.38;;;22.50;35.90;;;;;;5024497;28;20038;-51
2022/04/01 03:40:15;;;;;;;2.25;1.17;;;22.50;35.90;;;;;;5024445;28;20029;-50
2022/04/01 03:42:45;;;;;;;2.83;1.40;;;22.50;35.90;;;;;;5024620;28;20636;-49
2022/04/01 03:45:12;;;;;;;3.15;1.60;;;22.50;35.90;;;;;;5025382;28;20619;-49
2022/04/01 03:47:55;;;;;;;2.97;1.40;;;22.50;35.80;;;;;;5024742;28;20363;-50
2022/04/01 03:50:29;;;;;;;2.70;1.40;;;22.50;35.90;;;;;;5024198;28;20036;-50
2022/04/01 03:53:05;;;;;;;2.83;1.20;;;22.50;35.90;;;;;;5023932;28;20048;-51
2022/04/01 03:55:32;;;;;;;3.25;1.45;;;22.50;35.90;;;;;;5007483;28;20033;-51
2022/04/01 03:58:13;;;;;;;2.38;1.35;;;22.50;36.00;;;;;;5024764;28;20025;-50
2022/04/01 04:00:41;;;;;;;2.30;1.25;;;22.40;35.90;;;;;;5024028;28;20063;-51
2022/04/01 04:03:11;;;;;;;2.28;1.35;;;22.50;36.00;;;;;;5023952;28;20059;-51
2022/04/01 04:05:38;;;;;;;2.42;1.38;;;22.50;36.00;;;;;;4990465;28;20422;-52
2022/04/01 04:08:06;;;;;;;3.20;1.58;;;22.40;35.90;;;;;;5024176;28;20021;-50
2022/04/01 04:10:34;;;;;;;2.28;1.30;;;22.40;35.90;;;;;;5023555;28;20025;-51
2022/04/01 04:13:04;;;;;;;1.60;0.98;;;22.40;36.00;;;;;;5024769;28;20033;-50
2022/04/01 04:15:40;;;;;;;2.35;1.30;;;22.40;35.90;;;;;;5024673;28;20534;-51
2022/04/01 04:18:10;;;;;;;2.35;1.30;;;22.40;36.00;;;;;;5024157;28;20513;-50
2022/04/01 04:20:43;;;;;;;3.25;1.55;;;22.50;36.20;;;;;;5024193;28;20592;-50
2022/04/01 04:23:34;;;;;;;2.10;1.20;;;22.40;36.00;;;;;;5024281;28;20033;-52
2022/04/01 04:26:04;;;;;;;2.55;1.23;;;22.40;36.00;;;;;;5006576;28;20030;-50
2022/04/01 04:28:36;;;;;;;2.25;1.15;;;22.50;36.10;;;;;;5024235;28;20053;-49
2022/04/01 04:31:05;;;;;;;1.52;0.93;;;22.50;36.20;;;;;;5024190;28;20254;-50
2022/04/01 04:33:33;;;;;;;2.25;1.10;;;22.50;36.20;;;;;;5024404;28;20667;-50
2022/04/01 04:36:04;;;;;;;2.40;1.15;;;22.50;36.20;;;;;;5024354;28;20076;-49
2022/04/01 04:38:40;;;;;;;2.22;1.10;;;22.60;36.30;;;;;;5023882;28;20025;-50
2022/04/01 04:41:10;;;;;;;2.50;1.20;;;22.60;36.20;;;;;;5023632;28;20072;-51
2022/04/01 04:43:42;;;;;;;1.98;0.80;;;22.70;36.30;;;;;;5023618;28;20032;-49
2022/04/01 04:46:08;;;;;;;2.08;1.02;;;22.70;36.20;;;;;;5024417;28;20049;-50
2022/04/01 04:48:36;;;;;;;1.85;1.00;;;22.80;36.10;;;;;;5023667;28;20029;-49
2022/04/01 04:51:03;;;;;;;2.15;1.10;;;22.90;36.10;;;;;;5023570;28;20403;-50
2022/04/01 04:53:34;;;;;;;2.25;1.10;;;22.90;36.10;;;;;;5024462;28;20041;-51
2022/04/01 04:56:04;;;;;;;2.03;1.00;;;22.90;35.90;;;;;;5024357;28;20509;-50
2022/04/01 04:58:42;;;;;;;1.83;0.95;;;23.00;35.80;;;;;;5023778;28;20033;-51
2022/04/01 05:01:39;;;;;;;2.70;1.30;;;23.00;35.70;;;;;;5023612;28;20524;-50
2022/04/01 05:04:17;;;;;;;2.25;1.05;;;23.10;35.70;;;;;;5024885;28;20040;-51
2022/04/01 05:06:54;;;;;;;1.55;0.88;;;23.10;35.70;;;;;;5027508;28;20025;-51
2022/04/01 05:09:37;;;;;;;2.60;1.10;;;23.20;35.50;;;;;;5027115;28;20204;-49
2022/04/01 05:12:36;;;;;;;2.10;0.90;;;23.20;35.50;;;;;;5027859;28;20036;-49
2022/04/01 05:15:08;;;;;;;2.25;1.17;;;23.20;35.40;;;;;;4973036;28;20032;-50
2022/04/01 05:17:42;;;;;;;2.17;1.00;;;23.30;35.90;;;;;;5010007;28;20029;-50
2022/04/01 05:20:16;;;;;;;2.13;1.00;;;23.30;35.30;;;;;;5026940;28;20036;-50
2022/04/01 05:23:06;;;;;;;2.55;1.15;;;23.40;35.30;;;;;;5027806;28;20533;-51
2022/04/01 05:25:43;;;;;;;1.92;0.80;;;23.50;35.20;;;;;;5027634;28;20439;-50
2022/04/01 05:28:21;;;;;;;1.98;0.95;;;23.50;35.10;;;;;;5027168;28;20095;-49
2022/04/01 05:30:56;;;;;;;2.10;1.00;;;23.50;35.00;;;;;;5027070;28;20036;-50
2022/04/01 05:33:26;;;;;;;1.75;0.90;;;23.50;35.00;;;;;;5026914;28;20349;-50
2022/04/01 05:35:53;;;;;;;2.13;1.02;;;23.60;35.00;;;;;;5027014;28;20033;-49
2022/04/01 05:38:19;;;;;;;2.60;1.30;;;23.60;34.90;;;;;;5026767;28;20048;-49
2022/04/01 05:40:46;;;;;;;1.70;1.00;;;23.60;34.90;;;;;;5025689;28;20037;-50
2022/04/01 05:43:14;;;;;;;2.53;1.23;;;23.70;34.90;;;;;;5023978;28;20025;-48
2022/04/01 05:45:43;;;;;;;2.72;1.50;;;23.70;34.80;;;;;;5024382;28;20029;-50
2022/04/01 05:48:11;;;;;;;2.33;1.10;;;23.70;34.80;;;;;;5025442;28;20043;-50
2022/04/01 05:50:38;;;;;;;3.33;1.60;;;23.70;34.80;;;;;;5023830;28;20251;-50
2022/04/01 05:53:06;;;;;;;2.83;1.55;;;23.70;34.80;;;;;;5008112;28;20063;-51
2022/04/01 05:55:32;;;;;;;2.47;1.25;;;23.70;34.90;;;;;;5025816;28;20481;-49
2022/04/01 05:57:58;;;;;;;2.60;1.23;;;23.70;34.90;;;;;;5024054;28;20032;-50
2022/04/01 06:00:24;;;;;;;3.35;1.65;;;23.80;34.90;;;;;;5025606;28;20025;-51
2022/04/01 06:03:11;;;;;;;5.53;1.80;;;23.70;35.40;;;;;;5023547;28;20449;-51
2022/04/01 06:06:08;;;;;;;4.15;2.20;;;23.70;35.60;;;;;;5023219;28;20033;-52
2022/04/01 06:08:58;;;;;;;4.18;2.03;;;23.80;36.00;;;;;;5021998;28;20407;-51
2022/04/01 06:11:50;;;;;;;4.38;1.90;;;23.80;36.60;;;;;;5020764;28;20579;-50
2022/04/01 06:14:54;;;;;;;3.97;1.92;;;23.80;37.00;;;;;;5023401;28;20490;-52
2022/04/01 06:17:36;;;;;;;5.60;2.13;;;23.80;37.30;;;;;;5025167;28;20045;-50
2022/04/01 06:20:07;;;;;;;4.33;1.93;;;23.80;37.30;;;;;;5025667;28;20033;-51
2022/04/01 06:22:40;;;;;;;3.92;1.90;;;23.90;37.40;;;;;;5025717;28;20529;-52
2022/04/01 06:25:15;;;;;;;3.83;1.80;;;23.90;37.60;;;;;;5014645;28;20151;-52
2022/04/01 06:27:46;;;;;;;6.80;2.10;;;23.90;37.50;;;;;;5024498;28;20033;-52
2022/04/01 06:30:14;;;;;;;4.05;1.92;;;23.80;37.60;;;;;;5008027;28;20071;-52
2022/04/01 06:32:46;;;;;;;3.45;1.77;;;23.80;37.70;;;;;;5025191;28;20416;-52
2022/04/01 06:35:28;;;;;;;3.38;1.73;;;23.80;37.80;;;;;;5025709;28;20126;-52
2022/04/01 06:37:59;;;;;;;3.53;1.80;;;23.90;37.80;;;;;;5025749;28;20029;-53
2022/04/01 06:40:38;;;;;;;4.40;1.88;;;23.90;37.90;;;;;;5007534;28;20351;-52
2022/04/01 06:43:04;;;;;;;5.53;1.95;;;23.90;37.80;;;;;;5025059;28;20049;-52
2022/04/01 06:45:30;;;;;;;4.32;2.00;;;23.90;38.00;;;;;;5024325;28;20021;-52
2022/04/01 06:47:56;;;;;;;5.68;2.30;;;23.90;38.50;;;;;;5023680;28;20024;-51
2022/04/01 06:50:22;;;;;;;4.32;1.83;;;23.90;37.80;;;;;;5022354;28;20073;-51
2022/04/01 06:52:47;;;;;;;4.93;1.92;;;23.90;37.80;;;;;;5021055;28;20099;-52
2022/04/01 06:55:14;;;;;;;5.38;1.90;;;23.90;37.60;;;;;;5020666;28;20406;-52
2022/04/01 06:57:40;;;;;;;4.28;1.75;;;23.90;37.40;;;;;;5021632;28;20040;-50
2022/04/01 07:00:08;;;;;;;4.05;1.98;;;23.90;37.30;;;;;;5022011;28;20100;-50
2022/04/01 07:02:35;;;;;;;5.15;2.30;;;23.90;37.30;;;;;;5020819;28;20048;-49
2022/04/01 07:05:02;;;;;;;7.45;2.30;;;24.00;37.20;;;;;;5023665;28;20029;-50
2022/04/01 07:07:28;;;;;;;6.30;2.00;;;24.00;37.40;;;;;;5024036;28;20076;-50
2022/04/01 07:09:54;;;;;;;5.45;1.88;;;24.00;37.50;;;;;;5021804;28;20029;-51
2022/04/01 07:12:20;;;;;;;4.22;2.03;;;23.90;37.50;;;;;;5024515;28;20044;-51
2022/04/01 07:14:45;;;;;;;4.88;2.17;;;24.00;37.40;;;;;;5024914;28;20533;-51
2022/04/01 07:17:11;;;;;;;5.47;2.28;;;23.90;37.40;;;;;;5024820;28;20040;-52
2022/04/01 07:19:37;;;;;;;4.15;2.05;;;24.00;37.40;;;;;;5015536;28;20498;-51
2022/04/01 07:22:03;;;;;;;4.68;2.20;;;23.90;37.20;;;;;;5031789;28;20556;-52
2022/04/01 07:24:30;;;;;;;5.60;2.55;;;23.90;37.40;;;;;;5024017;28;20087;-53
2022/04/01 07:26:56;;;;;;;5.82;2.30;;;23.90;37.40;;;;;;5023017;28;20021;-51
2022/04/01 07:29:22;;;;;;;5.13;2.10;;;24.00;37.40;;;;;;4997159;28;20018;-51
2022/04/01 07:34:39;;;;;;;4.57;1.77;;;24.00;37.40;;;;;;5024574;28;20116;-51
2022/04/01 07:37:05;;;;;;;5.22;2.55;;;24.00;37.40;;;;;;5024256;28;20106;-51
2022/04/01 07:39:31;;;;;;;5.60;2.55;;;24.00;37.40;;;;;;5023698;28;20029;-51
2022/04/01 07:41:57;;;;;;;6.50;2.42;;;24.00;37.40;;;;;;5024756;28;20033;-51
2022/04/01 07:44:23;;;;;;;6.47;2.10;;;24.00;37.40;;;;;;5024520;28;20367;-50
2022/04/01 07:46:50;;;;;;;4.68;2.40;;;24.00;37.40;;;;;;5024883;28;20073;-50
2022/04/01 07:49:17;;;;;;;4.25;2.00;;;24.00;37.30;;;;;;5006948;28;20290;-51
2022/04/01 07:51:46;;;;;;;4.95;2.17;;;24.00;37.30;;;;;;5024543;28;20721;-52
2022/04/01 07:54:12;;;;;;;4.28;1.83;;;23.90;37.20;;;;;;5024563;28;20029;-51
2022/04/01 07:56:40;;;;;;;4.30;1.83;;;24.00;37.20;;;;;;5023861;28;20037;-50
2022/04/01 07:59:07;;;;;;;4.93;1.92;;;24.00;37.20;;;;;;5023781;28;20312;-51
2022/04/01 08:01:34;;;;;;;4.53;2.10;;;24.00;37.10;;;;;;5012240;28;20123;-51
2022/04/01 08:03:59;;;;;;;4.45;1.92;;;24.00;37.10;;;;;;5014560;28;20033;-52
2022/04/01 08:06:25;;;;;;;4.88;1.70;;;23.90;37.00;;;;;;5018517;28;20029;-51
2022/04/01 08:08:52;;;;;;;3.75;1.58;;;23.90;37.00;;;;;;5024142;28;20117;-52
2022/04/01 08:11:17;;;;;;;5.32;2.38;;;23.90;36.90;;;;;;5024226;28;20113;-53
2022/04/01 08:13:43;;;;;;;3.58;1.67;;;23.90;36.90;;;;;;5022300;28;20500;-53
2022/04/01 08:16:10;;;;;;;4.53;1.98;;;23.90;37.00;;;;;;5023138;28;20041;-51
2022/04/01 08:18:36;;;;;;;5.22;1.88;;;23.90;36.80;;;;;;5009332;28;20124;-52
2022/04/01 08:21:03;;;;;;;3.75;1.63;;;23.90;37.00;;;;;;5023549;28;20179;-52
2022/04/01 08:23:34;;;;;;;3.75;1.60;;;23.90;37.20;;;;;;5021713;28;20041;-53
2022/04/01 08:26:01;;;;;;;4.45;1.83;;;24.00;37.50;;;;;;5023122;28;20022;-52
2022/04/01 08:28:28;;;;;;;4.97;1.70;;;23.90;37.70;;;;;;5006538;28;20034;-52
2022/04/01 08:30:53;;;;;;;5.07;2.00;;;23.90;37.60;;;;;;5023809;28;20021;-50
2022/04/01 08:33:20;;;;;;;3.83;1.63;;;24.00;37.70;;;;;;5020974;28;20638;-51
2022/04/01 08:35:46;;;;;;;4.72;1.70;;;24.00;37.60;;;;;;5023016;28;20632;-52
2022/04/01 08:38:13;;;;;;;4.45;2.03;;;24.00;37.50;;;;;;5024370;28;20029;-52
2022/04/01 08:40:38;;;;;;;3.97;1.60;;;24.00;37.40;;;;;;5026494;28;20051;-53
2022/04/01 08:43:05;;;;;;;4.32;1.95;;;24.00;37.30;;;;;;5025345;28;20037;-52
2022/04/01 08:45:36;;;;;;;2.85;1.27;;;24.00;37.30;;;;;;4993035;28;20013;-51
2022/04/01 08:48:10;;;;;;;4.05;1.55;;;24.00;37.20;;;;;;5008217;28;20028;-52
2022/04/01 08:50:36;;;;;;;5.30;2.13;;;24.00;37.10;;;;;;5026296;28;20034;-52
2022/04/01 08:53:03;;;;;;;3.25;1.38;;;23.90;37.00;;;;;;5027120;28;20443;-52
2022/04/01 08:55:29;;;;;;;3.88;1.65;;;24.00;37.00;;;;;;5027114;28;20029;-53
2022/04/01 08:57:56;;;;;;;4.43;1.98;;;24.00;36.90;;;;;;5024739;28;20593;-54
2022/04/01 09:00:22;;;;;;;4.40;1.58;;;24.00;36.90;;;;;;5010529;28;20038;-53
2022/04/01 09:03:15;;;;;;;4.10;1.80;;;24.00;36.80;;;;;;5009669;28;20026;-52
2022/04/01 09:05:52;;;;;;;3.22;1.58;;;23.90;36.90;;;;;;4987723;28;20672;-53
2022/04/01 09:08:27;;;;;;;3.92;1.60;;;23.90;36.80;;;;;;5011058;28;20022;-52
2022/04/01 09:10:58;;;;;;;3.35;1.45;;;23.90;36.80;;;;;;5021540;28;20029;-52
2022/04/01 09:13:30;;;;;;;3.28;1.30;;;23.90;36.90;;;;;;5007401;28;20025;-52
2022/04/01 09:15:56;;;;;;;3.92;1.70;;;23.90;36.80;;;;;;5026980;28;20468;-53
2022/04/01 09:18:43;;;;;;;5.35;1.58;;;23.90;36.90;;;;;;5026192;28;20074;-51
2022/04/01 09:21:13;;;;;;;3.72;1.60;;;23.90;36.80;;;;;;5006758;28;20121;-52
2022/04/01 09:23:44;;;;;;;3.67;1.52;;;23.90;36.80;;;;;;5019781;28;20045;-52
2022/04/01 09:26:10;;;;;;;4.80;1.65;;;23.90;36.80;;;;;;5017052;28;20037;-52
2022/04/01 09:28:41;;;;;;;3.10;1.20;;;23.90;36.70;;;;;;5016040;28;20425;-52
2022/04/01 09:31:15;;;;;;;3.30;1.25;;;23.80;36.60;;;;;;5009258;28;20069;-52
2022/04/01 09:33:43;;;;;;;3.67;1.23;;;23.80;36.70;;;;;;5026645;28;20696;-53
2022/04/01 09:36:12;;;;;;;2.65;1.20;;;23.80;36.70;;;;;;5037061;28;20461;-53
2022/04/01 09:38:38;;;;;;;3.65;1.35;;;23.80;36.70;;;;;;5028963;28;20034;-52
2022/04/01 09:41:07;;;;;;;4.18;1.70;;;23.80;36.80;;;;;;5027048;28;20033;-52
2022/04/01 09:43:39;;;;;;;3.97;1.77;;;23.80;36.80;;;;;;5026490;28;20025;-52
2022/04/01 09:46:20;;;;;;;2.75;1.25;;;23.80;36.80;;;;;;5022965;28;20025;-52
2022/04/01 09:48:47;;;;;;;2.95;1.30;;;23.80;36.80;;;;;;5026763;28;20026;-52
2022/04/01 09:51:13;;;;;;;3.25;1.33;;;23.80;36.70;;;;;;5025158;28;20037;-52
2022/04/01 09:53:43;;;;;;;3.50;1.40;;;23.80;36.80;;;;;;5010354;28;20603;-53
2022/04/01 09:56:09;;;;;;;2.80;1.20;;;23.70;36.80;;;;;;5028891;28;20037;-53
2022/04/01 09:58:35;;;;;;;3.45;0.98;;;23.70;36.80;;;;;;5046122;28;20103;-53
2022/04/01 10:01:02;;;;;;;3.80;1.52;;;23.80;36.80;;;;;;5046148;28;20033;-53
2022/04/01 10:03:28;;;;;;;3.00;1.17;;;23.70;36.80;;;;;;5026387;28;20045;-51
2022/04/01 10:05:56;;;;;;;3.63;1.17;;;23.80;36.80;;;;;;5030838;28;20022;-52
2022/04/01 10:08:25;;;;;;;3.83;1.50;;;23.80;36.80;;;;;;5035914;28;20040;-52
2022/04/01 10:10:52;;;;;;;3.20;1.83;;;23.70;36.90;;;;;;5032749;28;20029;-52
2022/04/01 10:13:22;;;;;;;3.42;1.27;;;23.80;36.90;;;;;;5006528;28;20092;-52
2022/04/01 10:15:49;;;;;;;4.68;1.60;;;23.70;36.70;;;;;;5011641;28;20482;-52
2022/04/01 10:18:18;;;;;;;3.20;1.10;;;23.80;36.60;;;;;;5024147;28;20025;-51
2022/04/01 10:20:44;;;;;;;2.80;1.20;;;23.80;36.60;;;;;;5022785;28;20021;-52
2022/04/01 10:23:12;;;;;;;4.43;1.40;;;23.80;36.60;;;;;;5028892;28;20038;-52
2022/04/01 10:25:58;;;;;;;2.55;1.15;;;23.80;36.50;;;;;;5031839;28;20025;-52
2022/04/01 10:28:26;;;;;;;2.97;1.10;;;23.80;36.60;;;;;;5018151;28;20481;-52
2022/04/01 10:30:56;;;;;;;2.53;1.23;;;23.80;36.60;;;;;;5023194;28;20600;-51
2022/04/01 10:33:31;;;;;;;3.58;1.40;;;23.80;36.80;;;;;;5024730;28;20068;-51
2022/04/01 10:35:57;;;;;;;2.78;1.45;;;23.80;36.90;;;;;;5038780;28;20031;-51
2022/04/01 10:38:33;;;;;;;3.22;1.40;;;23.80;37.00;;;;;;5020147;28;20032;-51
2022/04/01 10:41:12;;;;;;;3.30;1.70;;;23.80;39.20;;;;;;5031368;28;20024;-52
2022/04/01 10:43:43;;;;;;;3.50;1.65;;;23.90;39.70;;;;;;5044226;28;20035;-52
2022/04/01 10:46:15;;;;;;;4.88;1.80;;;24.00;38.80;;;;;;5026319;28;20018;-52
2022/04/01 10:52:17;;;;;;;2.70;1.10;;;24.00;37.90;;;;;;5027281;28;20033;-52
2022/04/01 10:54:47;;;;;;;3.15;1.30;;;24.00;37.70;;;;;;5029990;28;20511;-51
2022/04/01 10:57:31;;;;;;;3.05;1.30;;;24.00;37.50;;;;;;5043612;28;20029;-52
2022/04/01 11:00:04;;;;;;;2.85;1.13;;;24.00;37.50;;;;;;5045083;28;20029;-52
2022/04/01 11:02:30;;;;;;;3.60;1.35;;;24.00;37.40;;;;;;5036571;28;20049;-51
2022/04/01 11:04:56;;;;;;;2.60;1.15;;;24.00;37.20;;;;;;5018537;28;20454;-51
2022/04/01 11:07:21;;;;;;;3.47;1.23;;;23.90;37.10;;;;;;5010822;28;20039;-52
2022/04/01 11:09:56;;;;;;;3.13;1.13;;;24.00;37.20;;;;;;5021451;28;20096;-52
2022/04/01 11:12:23;;;;;;;2.53;1.30;;;24.00;37.10;;;;;;5020617;28;20108;-52
2022/04/01 11:15:07;;;;;;;2.80;1.30;;;23.90;37.10;;;;;;5011228;28;20084;-52
2022/04/01 11:17:44;;;;;;;2.58;1.02;;;23.90;37.10;;;;;;5005044;28;20094;-52
2022/04/01 11:20:17;;;;;;;3.45;1.10;;;23.90;37.10;;;;;;5016404;28;20049;-52
2022/04/01 11:22:42;;;;;;;2.22;1.13;;;23.90;37.00;;;;;;5020195;28;20448;-51
2022/04/01 11:25:21;;;;;;;3.05;0.90;;;23.90;37.00;;;;;;5011686;28;20119;-51
2022/04/01 11:28:02;;;;;;;4.20;1.33;;;23.90;37.00;;;;;;5021913;28;20493;-52
2022/04/01 11:30:53;;;;;;;2.67;1.10;;;23.90;37.10;;;;;;5006757;28;20026;-52
2022/04/01 11:33:21;;;;;;;3.17;1.40;;;23.90;37.10;;;;;;5001357;28;20182;-52
2022/04/01 11:35:50;;;;;;;2.25;0.93;;;23.90;37.10;;;;;;5019643;28;20045;-51
2022/04/01 11:38:18;;;;;;;2.15;0.90;;;23.90;37.10;;;;;;5015453;28;20516;-51
2022/04/01 11:40:46;;;;;;;2.35;1.00;;;23.90;37.10;;;;;;5014376;28;20521;-52
2022/04/01 11:43:16;;;;;;;1.70;0.80;;;23.90;37.10;;;;;;5018162;28;21980;-51
2022/04/01 11:46:03;;;;;;;2.13;1.00;;;23.90;37.10;;;;;;5024565;28;20034;-51
2022/04/01 11:48:46;;;;;;;2.10;1.00;;;23.90;37.10;;;;;;5021643;28;20074;-51
2022/04/01 11:51:12;;;;;;;2.42;1.27;;;23.80;37.00;;;;;;5013230;28;20029;-51
2022/04/01 11:53:43;;;;;;;2.20;0.90;;;23.90;37.00;;;;;;5012276;28;20044;-52
2022/04/01 11:56:13;;;;;;;2.78;1.27;;;23.90;37.00;;;;;;5013112;28;20033;-51
2022/04/01 11:59:01;;;;;;;2.50;1.27;;;23.80;36.90;;;;;;5006945;28;20048;-52
2022/04/01 12:01:30;;;;;;;3.10;1.30;;;23.80;36.90;;;;;;5006017;28;20045;-52
2022/04/01 12:04:02;;;;;;;2.33;0.93;;;23.80;36.80;;;;;;5006462;28;21558;-52
2022/04/01 12:09:13;;;;;;;1.92;0.80;;;23.90;36.90;;;;;;5012746;28;20670;-52
2022/04/01 12:11:43;;;;;;;2.30;0.90;;;23.80;36.90;;;;;;5014800;28;20037;-52
2022/04/01 12:14:11;;;;;;;1.88;0.80;;;23.80;36.80;;;;;;5018513;28;20045;-52
2022/04/01 12:16:43;;;;;;;2.85;1.25;;;23.80;36.80;;;;;;5001398;28;20099;-52
2022/04/01 12:19:17;;;;;;;;;;;23.80;37.50;;;;;;5024296;28;20583;-52
2022/04/01 12:21:46;;;;;;;1.83;0.80;;;23.80;36.80;;;;;;5024352;28;19905;-51
2022/04/01 12:24:12;;;;;;;1.40;0.68;;;23.80;36.80;;;;;;4991693;28;20026;-52
2022/04/01 12:26:37;;;;;;;2.92;1.00;;;23.80;36.80;;;;;;5019197;28;20018;-51
2022/04/01 12:29:17;;;;;;;2.38;1.00;;;23.70;36.80;;;;;;5022868;28;20504;-52
2022/04/01 12:31:53;;;;;;;3.25;0.88;;;23.70;36.90;;;;;;5021768;28;20029;-51
2022/04/01 12:34:19;;;;;;;1.83;0.80;;;23.70;36.90;;;;;;5021679;28;20044;-52
2022/04/01 12:37:02;;;;;;;2.60;1.00;;;23.70;37.00;;;;;;5007587;28;20033;-52
2022/04/01 12:39:29;;;;;;;1.52;0.70;;;23.80;37.00;;;;;;5004496;28;20083;-52
2022/04/01 12:42:07;;;;;;;1.77;0.82;;;23.70;37.00;;;;;;5013561;28;20034;-52
2022/04/01 12:44:36;;;;;;;1.92;0.90;;;23.80;37.10;;;;;;5017779;28;20160;-53
2022/04/01 12:47:05;;;;;;;2.60;1.15;;;23.70;37.00;;;;;;5012727;28;20030;-52
2022/04/01 12:49:33;;;;;;;2.15;1.05;;;23.70;37.10;;;;;;5009229;28;20032;-52
2022/04/01 12:52:06;;;;;;;3.25;1.00;;;23.70;37.20;;;;;;5005423;28;20032;-53
2022/04/01 12:54:33;;;;;;;2.20;0.98;;;23.70;37.10;;;;;;5008571;28;20113;-52
2022/04/01 12:57:04;;;;;;;2.28;0.90;;;23.70;37.10;;;;;;4991061;28;20060;-53
2022/04/01 12:59:37;;;;;;;4.00;1.00;;;23.70;37.10;;;;;;4991674;28;20042;-53
2022/04/01 13:02:15;;;;;;;3.30;0.90;;;23.70;37.10;;;;;;5017334;28;20033;-53
2022/04/01 13:04:43;;;;;;;3.20;0.93;;;23.70;37.20;;;;;;4999509;28;20033;-53
2022/04/01 13:07:15;;;;;;;1.02;0.60;;;23.70;37.10;;;;;;5007332;28;20225;-52
2022/04/01 13:09:55;;;;;;;2.08;0.82;;;23.70;37.10;;;;;;5022465;28;20448;-52
2022/04/01 13:12:42;;;;;;;2.58;1.05;;;23.70;37.20;;;;;;5023660;28;20031;-52
2022/04/01 13:15:17;;;;;;;1.77;0.60;;;23.70;37.20;;;;;;5004102;28;20505;-52
2022/04/01 13:17:47;;;;;;;1.95;0.85;;;23.70;37.20;;;;;;5023492;28;20079;-52